Time;durP1;ratioP1;P1;durP2;ratioP2;P2;SDS_P1;SDS_P2;PMS_P1;PMS_P2;Temp;Humidity;BMP_temperature;BMP_pressure;BME280_temperature;BME280_humidity;BME280_pressure;Samples;Min_cycle;Max_cycle;Signal;HPM_P1;HPM_P2
2023/03/17 00:01:54;;;;;;;34.73;20.57;;;;;;;-0.61;64.10;100397.08;1710863;82;21014;-60
2023/03/17 00:04:23;;;;;;;39.08;19.32;;;;;;;-0.57;64.30;100406.50;1748424;80;21061;-64
2023/03/17 00:06:50;;;;;;;35.23;18.65;;;;;;;-0.54;64.31;100393.70;1752630;80;20989;-67
2023/03/17 00:09:19;;;;;;;33.58;17.52;;;;;;;-0.51;64.40;100392.44;1750275;78;21152;-64
2023/03/17 00:11:46;;;;;;;33.53;17.77;;;;;;;-0.46;64.57;100392.06;1747799;80;21062;-63
2023/03/17 00:14:13;;;;;;;32.58;17.85;;;;;;;-0.42;64.47;100381.00;1753577;80;20966;-67
2023/03/17 00:16:49;;;;;;;27.95;16.50;;;;;;;-0.43;64.48;100384.39;1691899;83;21102;-64
2023/03/17 00:19:32;;;;;;;30.97;16.37;;;;;;;-0.40;64.66;100379.28;1729333;81;21002;-69
2023/03/17 00:22:02;;;;;;;28.85;14.25;;;;;;;-0.38;64.71;100382.73;1732722;81;21564;-68
2023/03/17 00:24:28;;;;;;;29.75;14.28;;;;;;;-0.32;64.90;100385.33;1729631;81;21060;-66
2023/03/17 00:26:58;;;;;;;27.70;13.65;;;;;;;-0.29;64.82;100385.35;1730666;81;21082;-68
2023/03/17 00:29:25;;;;;;;25.80;12.95;;;;;;;-0.27;64.95;100386.23;1731632;81;20999;-68
2023/03/17 00:31:54;;;;;;;22.80;12.33;;;;;;;-0.20;65.06;100384.98;1731982;81;20998;-69
2023/03/17 00:34:21;;;;;;;27.75;13.53;;;;;;;-0.15;65.16;100387.16;1735664;81;20971;-63
2023/03/17 00:36:50;;;;;;;20.37;12.30;;;;;;;-0.12;65.06;100394.89;1731530;81;20983;-66
2023/03/17 00:39:17;;;;;;;23.32;10.50;;;;;;;-0.08;65.25;100394.92;1733056;81;21009;-67
2023/03/17 00:41:43;;;;;;;19.55;9.75;;;;;;;-0.03;65.18;100390.69;1734473;81;21057;-68
2023/03/17 00:44:10;;;;;;;18.98;8.48;;;;;;;0.02;65.10;100394.98;1733461;81;21073;-70
2023/03/17 00:46:40;;;;;;;19.87;8.93;;;;;;;0.02;65.07;100394.55;1727634;81;21014;-68
2023/03/17 00:49:20;;;;;;;17.23;7.92;;;;;;;0.06;65.11;100393.73;1736044;81;21486;-69
2023/03/17 00:51:48;;;;;;;20.20;8.28;;;;;;;0.12;65.26;100392.91;1728684;81;21615;-63
2023/03/17 00:54:18;;;;;;;16.07;8.33;;;;;;;0.14;65.36;100380.52;1737459;81;21029;-64
2023/03/17 00:56:46;;;;;;;16.85;8.45;;;;;;;0.17;65.49;100385.67;1730027;81;21067;-61
2023/03/17 00:59:38;;;;;;;22.02;8.68;;;;;;;0.17;65.42;100388.23;1729439;81;21094;-63
2023/03/17 01:02:04;;;;;;;16.55;8.78;;;;;;;0.17;65.40;100380.53;1731421;81;21002;-70
2023/03/17 01:04:32;;;;;;;19.45;9.85;;;;;;;0.19;65.49;100368.53;1734421;81;22361;-62
2023/03/17 01:06:59;;;;;;;20.55;9.88;;;;;;;0.18;65.52;100376.25;1730824;81;21038;-61
2023/03/17 01:09:28;;;;;;;21.10;10.25;;;;;;;0.17;65.50;100375.40;1732082;81;21057;-62
2023/03/17 01:11:55;;;;;;;20.65;9.85;;;;;;;0.12;65.63;100376.22;1736209;81;21006;-62
2023/03/17 01:14:23;;;;;;;23.22;9.25;;;;;;;0.08;65.61;100370.19;1705903;83;21046;-70
2023/03/17 01:16:51;;;;;;;16.93;8.73;;;;;;;0.02;65.73;100380.42;1731050;81;21561;-60
2023/03/17 01:19:18;;;;;;;17.42;9.70;;;;;;;-0.02;65.77;100381.27;1742209;81;21030;-65
2023/03/17 01:21:45;;;;;;;18.35;10.23;;;;;;;-0.03;65.84;100373.11;1731662;81;20937;-61
2023/03/17 01:24:12;;;;;;;17.65;8.85;;;;;;;-0.08;65.88;100373.11;1728384;81;21014;-70
2023/03/17 01:26:40;;;;;;;17.52;9.23;;;;;;;-0.13;66.00;100367.51;1735925;81;21123;-69
2023/03/17 01:29:07;;;;;;;18.75;9.70;;;;;;;-0.14;66.13;100355.11;1709799;83;21599;-61
2023/03/17 01:31:35;;;;;;;19.45;9.60;;;;;;;-0.13;66.22;100359.81;1716588;83;21081;-61
2023/03/17 01:34:03;;;;;;;15.90;8.65;;;;;;;-0.15;66.31;100358.94;1688851;83;20963;-65
2023/03/17 01:36:29;;;;;;;20.88;9.13;;;;;;;-0.17;66.25;100354.20;1752327;80;20997;-69
2023/03/17 01:38:57;;;;;;;18.03;8.10;;;;;;;-0.17;66.31;100358.05;1750858;80;21016;-61
2023/03/17 01:41:24;;;;;;;16.45;7.97;;;;;;;-0.17;66.45;100352.92;1752045;80;21120;-60
2023/03/17 01:43:50;;;;;;;19.30;8.20;;;;;;;-0.12;66.61;100358.95;1753925;80;21012;-62
2023/03/17 01:46:29;;;;;;;16.37;7.83;;;;;;;-0.12;66.63;100343.12;1755522;80;21050;-62
2023/03/17 01:49:19;;;;;;;17.90;8.30;;;;;;;-0.14;66.52;100350.37;1752109;80;21140;-61
2023/03/17 01:52:08;;;;;;;15.00;7.45;;;;;;;-0.19;66.59;100339.24;1752368;80;21108;-69
2023/03/17 01:54:49;;;;;;;17.65;8.38;;;;;;;-0.17;66.77;100337.52;1751729;80;21053;-62
2023/03/17 01:57:22;;;;;;;18.23;7.80;;;;;;;-0.16;66.88;100341.83;1712391;82;21073;-69
2023/03/17 01:59:53;;;;;;;15.32;7.55;;;;;;;-0.12;66.76;100334.56;1743008;80;21004;-65
2023/03/17 02:02:30;;;;;;;15.68;7.25;;;;;;;-0.15;66.84;100329.41;1728135;81;21597;-67
2023/03/17 02:04:58;;;;;;;14.70;7.45;;;;;;;-0.14;66.80;100327.27;1732998;81;21042;-64
2023/03/17 02:07:25;;;;;;;;;;;;;;;-0.14;67.14;100338.82;1734636;81;21030;-61
2023/03/17 02:09:54;;;;;;;16.85;6.92;;;;;;;-0.12;67.02;100333.28;1733668;81;20214;-63
2023/03/17 02:12:23;;;;;;;13.08;6.42;;;;;;;-0.11;67.05;100331.13;1730139;81;21043;-62
2023/03/17 02:14:51;;;;;;;20.82;7.37;;;;;;;-0.10;67.19;100331.59;1728554;81;21139;-67
2023/03/17 02:17:20;;;;;;;12.37;6.42;;;;;;;-0.10;67.22;100323.45;1728376;81;21673;-64
2023/03/17 02:19:48;;;;;;;15.32;6.58;;;;;;;-0.11;67.23;100317.02;1753666;80;21033;-61
2023/03/17 02:22:17;;;;;;;14.07;6.05;;;;;;;-0.09;67.59;100311.05;1755802;80;20969;-64
2023/03/17 02:24:52;;;;;;;13.30;6.78;;;;;;;-0.07;67.50;100312.34;1751604;80;21134;-62
2023/03/17 02:27:30;;;;;;;13.25;6.25;;;;;;;-0.05;67.42;100311.94;1706013;83;21561;-61
2023/03/17 02:29:58;;;;;;;16.48;6.30;;;;;;;-0.06;67.51;100311.06;1728927;80;20978;-65
2023/03/17 02:32:25;;;;;;;11.95;6.12;;;;;;;-0.05;67.74;100319.64;1734611;81;20993;-60
2023/03/17 02:34:51;;;;;;;11.95;5.80;;;;;;;-0.01;67.66;100317.52;1732094;81;20972;-59
2023/03/17 02:37:19;;;;;;;8.55;4.92;;;;;;;-0.02;67.91;100317.09;1730452;81;21094;-65
2023/03/17 02:39:46;;;;;;;;;;;;;;;-0.01;67.74;100311.09;1733548;81;21873;-67
2023/03/17 02:42:13;;;;;;;9.68;5.05;;;;;;;0.01;67.83;100319.67;1733871;81;20418;-64
2023/03/17 02:44:40;;;;;;;8.88;5.12;;;;;;;-0.03;67.84;100310.22;1730529;81;21645;-64
2023/03/17 02:47:07;;;;;;;14.93;6.03;;;;;;;-0.05;67.95;100315.36;1729484;81;21501;-63
2023/03/17 02:49:35;;;;;;;13.43;5.78;;;;;;;-0.04;68.09;100307.23;1730134;81;21007;-64
2023/03/17 02:52:03;;;;;;;9.75;5.12;;;;;;;-0.03;68.11;100298.66;1734684;81;21038;-61
2023/03/17 02:54:34;;;;;;;9.73;5.35;;;;;;;0.00;68.47;100297.42;1730724;81;21041;-61
2023/03/17 02:57:03;;;;;;;12.47;5.72;;;;;;;0.01;68.27;100296.56;1723204;81;20985;-65
2023/03/17 02:59:30;;;;;;;;;;;;;;;-0.01;68.33;100291.84;1731575;81;21072;-70
2023/03/17 03:01:56;;;;;;;11.95;5.50;;;;;;;-0.02;68.63;100286.28;1691628;83;20205;-64
2023/03/17 03:04:23;;;;;;;14.53;5.45;;;;;;;0.00;68.66;100288.44;1749181;80;21028;-66
2023/03/17 03:06:50;;;;;;;11.25;5.33;;;;;;;-0.02;68.61;100293.98;1731432;81;21166;-67
2023/03/17 03:09:17;;;;;;;10.13;4.97;;;;;;;-0.02;68.86;100293.55;1728204;81;21089;-61
2023/03/17 03:11:44;;;;;;;8.20;4.70;;;;;;;-0.02;68.86;100295.27;1730613;81;21034;-65
2023/03/17 03:14:11;;;;;;;14.68;5.30;;;;;;;-0.01;68.94;100311.95;1727533;81;21062;-67
2023/03/17 03:16:38;;;;;;;14.38;5.67;;;;;;;0.04;69.07;100317.11;1733405;81;21023;-67
2023/03/17 03:19:05;;;;;;;12.00;5.30;;;;;;;0.06;68.84;100322.27;1734056;81;21454;-66
2023/03/17 03:21:32;;;;;;;9.88;4.97;;;;;;;0.05;68.93;100314.97;1731910;81;21523;-70
2023/03/17 03:23:58;;;;;;;11.33;5.05;;;;;;;0.03;69.01;100302.57;1728587;81;21519;-68
2023/03/17 03:26:26;;;;;;;17.42;5.00;;;;;;;0.03;69.31;100312.84;1734771;81;21154;-63
2023/03/17 03:28:52;;;;;;;8.88;4.62;;;;;;;0.07;69.29;100304.29;1726640;81;21146;-66
2023/03/17 03:31:19;;;;;;;12.63;5.30;;;;;;;0.06;69.11;100310.29;1741855;80;21062;-66
2023/03/17 03:33:45;;;;;;;16.02;5.55;;;;;;;0.06;69.40;100310.29;1741603;80;21531;-66
2023/03/17 03:36:12;;;;;;;12.80;5.70;;;;;;;0.06;69.51;100306.44;1743521;80;21028;-70
2023/03/17 03:38:39;;;;;;;9.85;5.20;;;;;;;0.05;69.61;100309.83;1742690;80;21105;-63
2023/03/17 03:41:06;;;;;;;9.50;5.50;;;;;;;0.05;69.62;100318.81;1752110;80;20992;-63
2023/03/17 03:43:33;;;;;;;13.03;5.35;;;;;;;0.07;69.77;100319.69;1747093;80;20964;-69
2023/03/17 03:46:00;;;;;;;15.05;6.75;;;;;;;0.08;69.81;100316.27;1748184;80;21140;-67
2023/03/17 03:48:26;;;;;;;14.55;6.33;;;;;;;0.09;69.81;100315.44;1746212;80;20994;-61
2023/03/17 03:50:59;;;;;;;14.25;6.33;;;;;;;0.07;70.04;100322.27;1742312;80;21760;-69
2023/03/17 03:53:27;;;;;;;13.38;5.80;;;;;;;0.09;70.35;100319.72;1739754;80;20965;-60
2023/03/17 03:55:54;;;;;;;11.50;5.42;;;;;;;0.11;70.25;100324.02;1746453;80;21083;-61
2023/03/17 03:58:21;;;;;;;;;;;;;;;0.12;70.22;100310.31;1749414;80;21038;-62
2023/03/17 04:00:47;;;;;;;15.32;5.97;;;;;;;0.12;70.42;100298.75;1746545;80;20161;-62
2023/03/17 04:03:15;;;;;;;12.70;5.87;;;;;;;0.12;70.56;100306.45;1744600;80;21020;-62
2023/03/17 04:05:42;;;;;;;12.45;5.28;;;;;;;0.12;70.60;100309.02;1744819;80;20941;-60
2023/03/17 04:08:10;;;;;;;16.52;5.95;;;;;;;0.09;70.68;100289.75;1747145;80;21061;-61
2023/03/17 04:10:36;;;;;;;11.48;5.12;;;;;;;0.08;70.57;100298.29;1745660;80;21025;-60
2023/03/17 04:13:03;;;;;;;10.93;5.22;;;;;;;0.13;70.67;100292.75;1740523;80;21478;-61
2023/03/17 04:15:30;;;;;;;11.57;5.20;;;;;;;0.12;70.88;100284.63;1747672;80;21503;-69
2023/03/17 04:17:57;;;;;;;9.78;4.75;;;;;;;0.15;70.86;100291.06;1744161;80;20977;-63
2023/03/17 04:20:23;;;;;;;9.35;4.70;;;;;;;0.16;70.81;100288.91;1738808;80;20965;-63
2023/03/17 04:22:50;;;;;;;7.28;4.12;;;;;;;0.18;70.90;100309.48;1748008;80;21041;-61
2023/03/17 04:25:17;;;;;;;9.18;4.55;;;;;;;0.20;70.95;100300.08;1738061;80;21545;-60
2023/03/17 04:27:44;;;;;;;12.07;5.00;;;;;;;0.23;71.01;100289.81;1741536;80;21698;-62
2023/03/17 04:30:13;;;;;;;11.67;4.60;;;;;;;0.24;71.07;100289.38;1737603;80;21114;-67
2023/03/17 04:32:40;;;;;;;8.05;4.12;;;;;;;0.23;71.04;100291.53;1717346;81;21859;-61
2023/03/17 04:35:11;;;;;;;9.83;5.00;;;;;;;0.25;71.21;100282.09;1722593;81;21042;-64
2023/03/17 04:37:38;;;;;;;11.97;5.25;;;;;;;0.28;71.25;100279.54;1699505;83;20971;-62
2023/03/17 04:40:08;;;;;;;11.25;5.55;;;;;;;0.31;71.21;100272.72;1702345;82;21000;-61
2023/03/17 04:42:36;;;;;;;15.30;5.75;;;;;;;0.29;71.38;100270.57;1700412;83;21554;-62
2023/03/17 04:45:05;;;;;;;16.10;5.87;;;;;;;0.30;71.55;100262.43;1697639;82;21024;-62
2023/03/17 04:47:32;;;;;;;15.05;5.50;;;;;;;0.29;71.55;100269.72;1698835;82;21035;-65
2023/03/17 04:49:58;;;;;;;12.15;5.00;;;;;;;0.31;71.57;100272.72;1743327;81;20990;-61
2023/03/17 04:52:25;;;;;;;10.58;5.10;;;;;;;0.30;71.77;100272.70;1738119;80;21171;-63
2023/03/17 04:54:52;;;;;;;17.60;6.15;;;;;;;0.34;71.85;100268.02;1741322;80;20978;-62
2023/03/17 04:57:23;;;;;;;11.10;6.17;;;;;;;0.36;71.79;100269.72;1721356;81;20979;-61
2023/03/17 04:59:52;;;;;;;17.35;6.40;;;;;;;0.37;71.84;100264.18;1718638;81;21011;-62
2023/03/17 05:02:19;;;;;;;10.93;4.72;;;;;;;0.38;72.06;100263.31;1718798;81;21038;-64
2023/03/17 05:04:46;;;;;;;10.95;4.90;;;;;;;0.37;72.07;100257.76;1716297;82;21101;-61
2023/03/17 05:07:15;;;;;;;9.18;4.45;;;;;;;0.35;72.15;100251.31;1722580;81;21502;-62
2023/03/17 05:09:41;;;;;;;9.13;4.35;;;;;;;0.37;72.20;100257.32;1698680;82;21573;-61
2023/03/17 05:12:10;;;;;;;12.45;4.15;;;;;;;0.41;72.24;100263.31;1698648;82;21533;-62
2023/03/17 05:14:40;;;;;;;12.18;5.03;;;;;;;0.43;72.32;100265.47;1703380;82;21046;-61
2023/03/17 05:17:07;;;;;;;10.15;4.70;;;;;;;0.46;72.42;100264.19;1699648;82;20947;-61
2023/03/17 05:19:34;;;;;;;12.13;4.80;;;;;;;0.48;72.33;100268.91;1699472;82;21537;-59
2023/03/17 05:22:01;;;;;;;11.55;4.53;;;;;;;0.51;72.50;100265.06;1729246;82;21072;-67
2023/03/17 05:24:31;;;;;;;15.05;4.95;;;;;;;0.57;72.61;100262.50;1735836;81;20966;-63
2023/03/17 05:27:00;;;;;;;7.72;4.72;;;;;;;0.61;72.56;100262.92;1719538;81;21634;-66
2023/03/17 05:29:26;;;;;;;10.05;4.78;;;;;;;0.63;72.48;100259.94;1742135;81;21005;-65
2023/03/17 05:31:53;;;;;;;13.65;5.47;;;;;;;0.68;72.62;100264.25;1725006;82;21086;-67
2023/03/17 05:34:20;;;;;;;8.35;5.42;;;;;;;0.69;72.55;100269.38;1745196;81;21619;-69
2023/03/17 05:36:47;;;;;;;10.43;6.15;;;;;;;0.73;72.62;100271.52;1737739;81;20994;-65
2023/03/17 05:39:13;;;;;;;12.93;6.75;;;;;;;0.75;72.67;100269.81;1738904;81;21104;-70
2023/03/17 05:41:40;;;;;;;11.83;6.58;;;;;;;0.75;72.65;100271.09;1737036;81;21509;-66
2023/03/17 05:44:07;;;;;;;9.68;6.03;;;;;;;0.77;72.79;100270.25;1738433;81;21121;-66
2023/03/17 05:46:34;;;;;;;13.28;6.50;;;;;;;0.77;72.79;100273.25;1726226;82;21592;-69
2023/03/17 05:49:02;;;;;;;11.30;7.15;;;;;;;0.77;72.82;100264.25;1724795;82;21581;-64
2023/03/17 05:51:31;;;;;;;10.70;7.87;;;;;;;0.78;73.06;100260.81;1698305;84;21164;-66
2023/03/17 05:53:58;;;;;;;13.70;8.20;;;;;;;0.79;73.11;100249.70;1698961;82;20991;-66
2023/03/17 05:56:32;;;;;;;14.18;8.03;;;;;;;0.82;73.11;100254.84;1728825;82;21594;-65
2023/03/17 05:58:53;;;;;;;21.17;9.03;;;;;;;0.85;73.12;100238.98;1720559;81;21038;-64
2023/03/17 06:01:19;;;;;;;13.65;9.88;;;;;;;0.89;73.34;100243.69;1723341;81;21021;-67
2023/03/17 06:03:48;;;;;;;16.82;9.78;;;;;;;0.94;73.31;100235.55;1725547;82;20987;-64
2023/03/17 06:06:17;;;;;;;17.15;9.90;;;;;;;0.99;73.42;100235.56;1728087;83;21490;-65
2023/03/17 06:08:44;;;;;;;16.32;9.93;;;;;;;1.02;73.56;100240.27;1727989;81;21011;-65
2023/03/17 06:11:13;;;;;;;21.17;11.18;;;;;;;1.06;73.63;100232.96;1725384;82;20994;-66
2023/03/17 06:13:40;;;;;;;24.02;11.00;;;;;;;1.14;73.79;100233.41;1725431;82;21540;-66
2023/03/17 06:16:11;;;;;;;19.80;10.70;;;;;;;1.18;73.83;100226.98;1727396;82;21089;-66
2023/03/17 06:18:38;;;;;;;26.68;11.35;;;;;;;1.26;73.94;100230.80;1722795;81;21319;-67
2023/03/17 06:21:06;;;;;;;16.35;11.20;;;;;;;1.37;74.16;100234.22;1721491;82;21018;-64
2023/03/17 06:23:35;;;;;;;16.23;11.48;;;;;;;1.48;74.10;100232.48;1723177;83;22290;-68
2023/03/17 06:26:02;;;;;;;19.85;11.48;;;;;;;1.58;74.12;100241.06;1729065;82;21019;-66
2023/03/17 06:28:28;;;;;;;14.07;10.32;;;;;;;1.64;74.21;100241.03;1725484;82;21038;-62
2023/03/17 06:30:55;;;;;;;19.40;13.00;;;;;;;1.68;74.11;100240.59;1729345;82;20988;-63
2023/03/17 06:33:23;;;;;;;17.23;13.00;;;;;;;1.69;74.18;100248.76;1731101;82;21043;-64
2023/03/17 06:35:57;;;;;;;16.02;11.97;;;;;;;1.70;74.31;100253.03;1727526;82;20989;-66
2023/03/17 06:38:23;;;;;;;16.85;11.95;;;;;;;1.71;74.36;100263.75;1728781;82;21070;-64
2023/03/17 06:40:50;;;;;;;15.38;11.57;;;;;;;1.70;74.37;100259.47;1727169;82;21011;-66
2023/03/17 06:43:18;;;;;;;17.92;14.55;;;;;;;1.70;74.40;100263.33;1726692;83;21616;-66
2023/03/17 06:45:45;;;;;;;18.48;13.95;;;;;;;1.73;74.53;100260.75;1727970;82;21565;-66
2023/03/17 06:48:12;;;;;;;19.73;12.63;;;;;;;1.75;74.52;100257.74;1727842;81;21074;-69
2023/03/17 06:50:40;;;;;;;23.40;12.63;;;;;;;1.82;74.69;100262.44;1730253;81;21312;-64
2023/03/17 06:53:07;;;;;;;17.92;12.93;;;;;;;1.85;74.67;100255.58;1726208;82;20944;-65
2023/03/17 06:55:34;;;;;;;21.52;15.43;;;;;;;1.91;74.77;100265.86;1730387;82;21114;-65
2023/03/17 06:58:01;;;;;;;20.27;14.65;;;;;;;1.94;74.65;100270.99;1726837;82;21483;-67
2023/03/17 07:00:29;;;;;;;22.77;13.93;;;;;;;1.95;74.80;100259.81;1728665;81;21007;-69
2023/03/17 07:02:56;;;;;;;21.73;14.35;;;;;;;1.99;74.79;100252.52;1728257;82;21019;-65
2023/03/17 07:05:23;;;;;;;20.05;12.88;;;;;;;2.03;74.80;100266.67;1727082;82;21041;-65
2023/03/17 07:07:50;;;;;;;19.17;14.05;;;;;;;2.04;74.88;100256.34;1727895;82;21145;-65
2023/03/17 07:10:18;;;;;;;22.10;18.12;;;;;;;2.08;74.91;100259.79;1726082;82;21098;-62
2023/03/17 07:12:45;;;;;;;74.50;66.80;;;;;;;2.13;74.95;100255.45;1732596;82;21031;-69
2023/03/17 07:15:12;;;;;;;38.28;33.05;;;;;;;2.21;75.11;100248.55;1727508;82;21078;-70
2023/03/17 07:17:39;;;;;;;29.18;26.05;;;;;;;2.33;75.20;100245.08;1728251;82;21791;-68
2023/03/17 07:20:08;;;;;;;37.60;33.63;;;;;;;2.51;75.19;100245.39;1729933;82;20968;-68
2023/03/17 07:22:34;;;;;;;26.12;23.15;;;;;;;2.68;75.15;100244.84;1725591;82;21074;-67
2023/03/17 07:25:01;;;;;;;24.90;19.48;;;;;;;2.81;75.12;100241.32;1725964;82;21581;-63
2023/03/17 07:27:28;;;;;;;22.77;17.82;;;;;;;2.90;75.08;100230.92;1729829;82;21605;-67
2023/03/17 07:29:54;;;;;;;58.05;51.85;;;;;;;3.00;75.18;100230.87;1725230;82;21046;-67
2023/03/17 07:32:21;;;;;;;23.15;19.02;;;;;;;3.15;75.00;100224.28;1732231;81;21042;-64
2023/03/17 07:34:49;;;;;;;17.37;12.13;;;;;;;3.28;74.96;100245.24;1737331;82;21075;-67
2023/03/17 07:37:20;;;;;;;13.45;9.75;;;;;;;3.35;74.96;100241.72;1734437;81;21113;-67
2023/03/17 07:39:48;;;;;;;12.73;9.30;;;;;;;3.41;74.85;100237.37;1709291;83;21054;-66
2023/03/17 07:42:16;;;;;;;13.28;10.20;;;;;;;3.56;75.01;100233.36;1719587;81;21524;-67
2023/03/17 07:44:43;;;;;;;18.35;12.05;;;;;;;3.66;74.75;100225.91;1736196;81;21006;-67
2023/03/17 07:47:12;;;;;;;16.50;13.50;;;;;;;3.83;74.97;100232.63;1735452;81;20970;-67
2023/03/17 07:49:39;;;;;;;20.12;17.70;;;;;;;4.11;75.02;100230.55;1732068;81;20998;-67
2023/03/17 07:52:07;;;;;;;16.25;11.25;;;;;;;4.46;74.80;100230.09;1732176;81;20916;-66
2023/03/17 07:54:35;;;;;;;15.43;11.35;;;;;;;4.49;74.28;100223.59;1730471;82;21489;-66
2023/03/17 07:57:03;;;;;;;16.32;11.12;;;;;;;4.53;74.30;100223.95;1732689;81;21014;-67
2023/03/17 07:59:30;;;;;;;16.57;11.40;;;;;;;4.58;74.19;100220.86;1732142;81;21033;-66
2023/03/17 08:01:58;;;;;;;13.20;10.40;;;;;;;5.06;74.22;100195.08;1732998;81;21014;-67
2023/03/17 08:04:26;;;;;;;14.25;10.25;;;;;;;5.06;74.22;100195.08;1734627;81;20982;-67
2023/03/17 08:06:53;;;;;;;19.05;12.90;;;;;;;5.27;73.34;100208.55;1735241;81;21017;-66
2023/03/17 08:09:23;;;;;;;12.60;8.85;;;;;;;5.30;73.46;100204.61;1730879;81;20916;-67
2023/03/17 08:11:50;;;;;;;10.38;8.58;;;;;;;5.31;73.19;100202.41;1733999;81;20916;-67
2023/03/17 08:14:16;;;;;;;17.02;11.78;;;;;;;5.24;72.75;100194.36;1709099;83;21054;-67
2023/03/17 08:16:43;;;;;;;19.23;12.45;;;;;;;5.20;72.83;100187.52;1736567;81;21037;-67
2023/03/17 08:19:10;;;;;;;28.20;17.25;;;;;;;5.20;72.32;100188.81;1735419;81;21002;-67
2023/03/17 08:21:38;;;;;;;16.12;8.65;;;;;;;5.12;71.97;100185.91;1734436;81;20985;-68
2023/03/17 08:24:06;;;;;;;11.03;6.37;;;;;;;5.12;71.69;100183.31;1728529;81;21025;-66
2023/03/17 08:26:32;;;;;;;10.82;6.40;;;;;;;5.13;71.27;100179.02;1712721;83;21592;-68
2023/03/17 08:29:00;;;;;;;10.08;6.30;;;;;;;5.12;71.06;100183.31;1708367;83;21102;-67
2023/03/17 08:31:27;;;;;;;8.63;6.35;;;;;;;5.08;70.28;100177.79;1731485;81;21486;-68
2023/03/17 08:33:55;;;;;;;11.10;6.15;;;;;;;5.00;69.95;100168.02;1736829;81;21560;-67
2023/03/17 08:36:23;;;;;;;13.25;7.03;;;;;;;5.01;69.52;100171.00;1710266;83;21034;-66
2023/03/17 08:38:52;;;;;;;16.55;6.42;;;;;;;5.08;69.45;100163.55;1731751;81;21025;-69
2023/03/17 08:41:22;;;;;;;13.88;5.92;;;;;;;5.22;69.03;100155.98;1718908;81;21017;-68
2023/03/17 08:43:50;;;;;;;16.17;8.15;;;;;;;5.53;69.11;100166.17;1736601;81;21510;-66
2023/03/17 08:46:27;;;;;;;14.18;7.97;;;;;;;6.02;68.15;100148.36;1735537;81;20962;-63
2023/03/17 08:48:55;;;;;;;11.83;6.25;;;;;;;6.19;67.93;100161.38;1713519;82;21026;-67
2023/03/17 08:51:25;;;;;;;11.00;6.50;;;;;;;6.23;67.14;100152.20;1679285;83;21100;-67
2023/03/17 08:53:53;;;;;;;8.70;6.47;;;;;;;6.32;66.59;100157.62;1712270;83;21085;-66
2023/03/17 08:56:21;;;;;;;14.45;6.83;;;;;;;6.73;66.64;100137.18;1735111;81;20958;-66
2023/03/17 08:58:51;;;;;;;12.30;6.92;;;;;;;7.00;65.52;100157.28;1730313;81;21126;-66
2023/03/17 09:01:20;;;;;;;14.00;6.50;;;;;;;7.18;65.18;100149.88;1707128;83;21018;-66
2023/03/17 09:03:48;;;;;;;9.78;5.83;;;;;;;7.19;64.73;100144.22;1680114;84;21050;-68
2023/03/17 09:06:15;;;;;;;8.88;5.25;;;;;;;7.26;64.54;100132.80;1733399;82;21523;-65
2023/03/17 09:08:46;;;;;;;16.60;5.53;;;;;;;7.31;63.31;100138.72;1710448;83;21707;-66
2023/03/17 09:11:19;;;;;;;16.25;7.55;;;;;;;7.30;62.56;100133.10;1711243;82;21446;-66
2023/03/17 09:13:50;;;;;;;13.45;6.62;;;;;;;7.10;62.58;100140.58;1730403;81;21588;-62
2023/03/17 09:16:16;;;;;;;11.53;6.05;;;;;;;6.90;62.32;100148.44;1677109;84;22496;-66
2023/03/17 09:18:45;;;;;;;12.93;6.92;;;;;;;6.69;62.01;100138.58;1732684;81;21458;-63
2023/03/17 09:21:14;;;;;;;9.78;6.62;;;;;;;6.66;62.01;100151.63;1733484;81;21478;-65
2023/03/17 09:23:41;;;;;;;9.48;6.35;;;;;;;6.48;61.49;100158.98;1712076;83;21048;-68
2023/03/17 09:26:09;;;;;;;11.93;7.65;;;;;;;6.42;61.38;100153.94;1712911;83;21553;-68
2023/03/17 09:28:36;;;;;;;9.65;6.87;;;;;;;6.61;61.68;100156.95;1711996;83;21014;-66
2023/03/17 09:31:11;;;;;;;15.18;6.37;;;;;;;7.00;61.17;100154.69;1736457;81;21062;-67
2023/03/17 09:33:34;;;;;;;11.68;6.03;;;;;;;7.08;60.57;100146.25;1711827;82;21013;-68
2023/03/17 09:36:01;;;;;;;13.18;7.42;;;;;;;7.36;60.70;100156.76;1708513;83;21470;-67
2023/03/17 09:38:30;;;;;;;8.93;6.08;;;;;;;7.91;60.01;100146.56;1706095;82;21003;-65
2023/03/17 09:41:05;;;;;;;11.38;5.65;;;;;;;8.29;59.08;100135.85;1710066;83;21026;-67
2023/03/17 09:43:45;;;;;;;10.90;7.12;;;;;;;8.43;59.25;100113.76;1686350;83;21576;-66
2023/03/17 09:46:41;;;;;;;10.50;6.83;;;;;;;8.42;59.07;100118.57;1736186;81;21014;-64
2023/03/17 09:49:15;;;;;;;15.65;5.97;;;;;;;8.46;58.94;100103.28;1735878;81;21035;-66
2023/03/17 09:51:44;;;;;;;27.67;17.15;;;;;;;8.20;58.21;100109.26;1737672;81;21431;-67
2023/03/17 09:54:27;;;;;;;11.73;7.47;;;;;;;8.26;58.16;100095.63;1736183;81;21047;-64
2023/03/17 09:57:20;;;;;;;16.95;8.45;;;;;;;8.60;57.52;100106.28;1713224;83;21078;-65
2023/03/17 09:59:52;;;;;;;11.15;7.33;;;;;;;8.81;56.26;100097.34;1677592;84;21474;-64
2023/03/17 10:02:28;;;;;;;19.85;12.82;;;;;;;9.41;56.85;100073.95;1676902;84;21609;-62
2023/03/17 10:04:56;;;;;;;28.45;17.12;;;;;;;9.41;56.85;100073.95;1735652;81;21728;-67
2023/03/17 10:07:31;;;;;;;15.50;8.30;;;;;;;9.37;55.45;100068.43;1733705;81;21010;-63
2023/03/17 10:10:04;;;;;;;10.45;6.70;;;;;;;9.05;54.89;100042.26;1730865;81;21053;-64
2023/03/17 10:12:57;;;;;;;13.05;7.78;;;;;;;8.91;54.11;100045.35;1733126;81;21557;-61
2023/03/17 10:15:56;;;;;;;14.75;9.80;;;;;;;8.91;54.11;100045.35;1734702;81;21049;-65
2023/03/17 10:18:30;;;;;;;10.50;6.55;;;;;;;9.24;54.60;100029.39;1735368;82;21454;-69
2023/03/17 10:21:02;;;;;;;10.65;6.62;;;;;;;9.42;53.61;100046.97;1734086;82;20963;-65
2023/03/17 10:23:35;;;;;;;12.25;6.78;;;;;;;9.14;53.06;100024.53;1727160;81;21021;-62
2023/03/17 10:26:10;;;;;;;11.45;8.30;;;;;;;8.79;52.17;100015.82;1711372;82;21068;-66
2023/03/17 10:28:37;;;;;;;10.08;6.30;;;;;;;8.79;52.17;100015.82;1704110;83;21117;-66
2023/03/17 10:31:18;;;;;;;10.08;5.50;;;;;;;8.94;52.13;100033.52;1733402;81;21023;-63
2023/03/17 10:33:49;;;;;;;9.60;6.15;;;;;;;9.01;51.93;100018.05;1712751;82;21061;-66
2023/03/17 10:36:17;;;;;;;16.35;9.05;;;;;;;9.16;51.89;100027.94;1712802;83;21011;-67
2023/03/17 10:38:53;;;;;;;14.13;6.47;;;;;;;9.51;52.20;100017.94;1678812;84;21544;-63
2023/03/17 10:41:20;;;;;;;8.58;5.55;;;;;;;9.58;51.32;100011.59;1756467;80;21476;-65
2023/03/17 10:43:50;;;;;;;12.65;6.55;;;;;;;9.40;50.55;100004.47;1712191;82;21058;-65
2023/03/17 10:46:24;;;;;;;9.80;6.45;;;;;;;9.18;50.12;100023.50;1711256;83;21426;-65
2023/03/17 10:48:55;;;;;;;15.45;6.25;;;;;;;9.04;50.20;100011.43;1730304;81;21594;-63
2023/03/17 10:51:29;;;;;;;12.18;5.37;;;;;;;9.04;50.29;100025.76;1735706;81;21026;-62
2023/03/17 10:54:05;;;;;;;6.90;4.83;;;;;;;8.84;49.67;100017.81;1732902;81;21054;-63
2023/03/17 10:56:35;;;;;;;8.18;5.00;;;;;;;8.56;49.29;100003.16;1730486;81;21518;-64
2023/03/17 10:59:25;;;;;;;8.08;5.20;;;;;;;8.38;49.38;99998.11;1734534;81;21502;-62
2023/03/17 11:01:56;;;;;;;9.95;5.40;;;;;;;8.38;49.53;99990.75;1733800;81;21092;-63
2023/03/17 11:04:41;;;;;;;8.93;4.85;;;;;;;8.35;48.59;99990.86;1733550;82;20979;-64
2023/03/17 11:07:17;;;;;;;7.83;5.17;;;;;;;8.54;48.68;99994.54;1731293;82;20999;-63
2023/03/17 11:09:51;;;;;;;7.28;4.90;;;;;;;8.86;48.78;99982.16;1735146;81;21108;-63
2023/03/17 11:12:39;;;;;;;12.80;7.45;;;;;;;9.51;48.81;99957.98;1733304;81;22198;-63
2023/03/17 11:15:16;;;;;;;8.40;5.65;;;;;;;9.51;48.81;99957.98;1729712;82;20940;-65
2023/03/17 11:17:55;;;;;;;9.78;6.53;;;;;;;9.92;48.66;99981.58;1735751;81;21026;-65
2023/03/17 11:20:49;;;;;;;51.83;9.18;;;;;;;10.60;49.08;99980.09;1733435;81;21027;-66
2023/03/17 11:23:35;;;;;;;11.78;9.70;;;;;;;11.17;48.58;99975.80;1729929;81;20959;-66
2023/03/17 11:26:36;;;;;;;16.40;7.22;;;;;;;11.52;48.63;99958.95;1732447;81;21499;-65
2023/03/17 11:29:42;;;;;;;8.98;5.33;;;;;;;11.94;48.12;99967.00;1733598;81;21023;-64
2023/03/17 11:32:20;;;;;;;9.78;5.92;;;;;;;12.03;47.33;99977.00;1734512;81;21030;-65
2023/03/17 11:35:22;;;;;;;8.95;5.35;;;;;;;11.76;45.67;99981.33;1732930;81;21038;-64
2023/03/17 11:38:24;;;;;;;10.13;5.40;;;;;;;11.82;45.92;99975.80;1700418;82;21006;-64